Time;durP1;ratioP1;P1;durP2;ratioP2;P2;SDS_P1;SDS_P2;PMS_P1;PMS_P2;Temp;Humidity;BMP_temperature;BMP_pressure;BME280_temperature;BME280_humidity;BME280_pressure;Samples;Min_cycle;Max_cycle;Signal;HPM_P1;HPM_P2
2021/06/20 00:02:23;;;;;;;9.30;7.30;;;;;;;23.61;100.00;98368.50;10225348;29;20215;-83
2021/06/20 00:07:44;;;;;;;8.73;7.10;;;;;;;23.59;100.00;98362.59;10224686;29;20661;-83
2021/06/20 00:13:04;;;;;;;10.70;7.20;;;;;;;23.73;100.00;98370.06;10222170;29;20171;-83
2021/06/20 00:18:23;;;;;;;10.77;7.60;;;;;;;23.56;100.00;98353.16;10224456;29;20191;-83
2021/06/20 00:23:42;;;;;;;14.27;8.60;;;;;;;23.48;100.00;98337.25;10227707;29;20567;-83
2021/06/20 00:29:01;;;;;;;9.20;8.17;;;;;;;23.38;100.00;98325.50;10261696;29;20234;-83
2021/06/20 00:34:20;;;;;;;10.70;7.80;;;;;;;23.32;100.00;98331.59;10266010;29;20179;-83
2021/06/20 00:39:39;;;;;;;12.00;8.00;;;;;;;23.24;100.00;98308.81;10268861;29;20210;-83
2021/06/20 00:44:59;;;;;;;13.10;8.37;;;;;;;23.27;100.00;98315.47;10273717;29;20182;-83
2021/06/20 00:50:18;;;;;;;17.43;8.57;;;;;;;23.25;100.00;98318.03;10278112;29;20183;-83
2021/06/20 00:55:38;;;;;;;14.80;9.67;;;;;;;23.01;100.00;98312.75;10264756;29;20183;-84
2021/06/20 01:00:57;;;;;;;12.17;7.80;;;;;;;22.96;100.00;98316.28;10229269;29;20211;-83
2021/06/20 01:06:17;;;;;;;17.83;9.90;;;;;;;23.05;100.00;98323.75;10228963;29;20180;-83
2021/06/20 01:11:36;;;;;;;14.30;10.00;;;;;;;23.03;100.00;98326.25;10223888;29;20577;-83
2021/06/20 01:16:55;;;;;;;13.20;9.03;;;;;;;23.04;100.00;98320.19;10217749;29;20179;-84
2021/06/20 01:22:26;;;;;;;11.77;9.60;;;;;;;23.06;100.00;98314.06;10219330;29;20207;-83
2021/06/20 01:27:53;;;;;;;22.40;10.80;;;;;;;23.17;100.00;98316.97;10240746;29;20183;-84
2021/06/20 01:33:14;;;;;;;12.87;10.30;;;;;;;22.99;100.00;98320.13;10257340;29;20641;-86
2021/06/20 01:38:34;;;;;;;13.37;9.37;;;;;;;22.91;100.00;98313.44;10258884;29;20178;-86
2021/06/20 01:43:53;;;;;;;17.00;10.07;;;;;;;22.84;100.00;98314.66;10260527;29;20637;-86
2021/06/20 01:49:12;;;;;;;16.70;9.13;;;;;;;22.90;100.00;98323.13;10257566;29;20190;-82
2021/06/20 01:54:49;;;;;;;12.63;9.63;;;;;;;22.89;100.00;98330.78;10259614;29;20526;-83
2021/06/20 02:00:14;;;;;;;20.40;9.87;;;;;;;23.05;100.00;98326.56;10220094;29;20207;-83
2021/06/20 02:05:34;;;;;;;10.90;8.83;;;;;;;22.78;100.00;98327.09;10219549;29;20635;-85
2021/06/20 02:10:56;;;;;;;10.30;9.10;;;;;;;22.78;100.00;98327.09;10218272;29;20562;-85
2021/06/20 02:16:15;;;;;;;18.80;10.50;;;;;;;22.62;100.00;98338.97;10225986;29;20175;-85
2021/06/20 02:21:34;;;;;;;11.87;9.90;;;;;;;22.63;100.00;98338.47;10239113;29;20235;-86
2021/06/20 02:26:52;;;;;;;15.13;9.67;;;;;;;22.47;100.00;98340.38;10256290;29;20190;-85
2021/06/20 02:32:12;;;;;;;16.87;10.80;;;;;;;22.52;100.00;98334.81;10278582;29;20215;-84
2021/06/20 02:37:32;;;;;;;13.90;9.23;;;;;;;22.65;100.00;98333.16;10276504;29;20183;-85
2021/06/20 02:42:51;;;;;;;17.90;10.57;;;;;;;22.64;100.00;98339.25;10277940;29;20214;-83
2021/06/20 02:48:10;;;;;;;18.43;10.13;;;;;;;22.69;100.00;98352.56;10276038;29;20187;-84
2021/06/20 02:53:29;;;;;;;12.63;9.23;;;;;;;22.68;100.00;98353.81;10277919;29;20724;-83
2021/06/20 02:58:48;;;;;;;11.83;8.70;;;;;;;22.75;100.00;98368.13;10232505;29;20544;-84
2021/06/20 03:04:08;;;;;;;15.93;9.73;;;;;;;22.59;100.00;98382.78;10221022;29;20179;-86
2021/06/20 03:09:27;;;;;;;10.10;8.83;;;;;;;22.57;100.00;98379.69;10221326;29;20192;-84
2021/06/20 03:14:47;;;;;;;12.57;9.00;;;;;;;22.64;100.00;98390.50;10226535;29;20634;-82
2021/06/20 03:20:07;;;;;;;11.07;9.97;;;;;;;22.51;100.00;98392.16;10221684;29;20215;-85
2021/06/20 03:25:27;;;;;;;17.93;9.90;;;;;;;22.42;100.00;98383.91;10227188;29;20664;-85
2021/06/20 03:30:46;;;;;;;12.63;9.27;;;;;;;22.50;100.00;98407.44;10255230;28;20218;-85
2021/06/20 03:36:05;;;;;;;17.87;10.73;;;;;;;22.46;100.00;98408.91;10259336;29;20178;-86
2021/06/20 03:41:24;;;;;;;17.33;11.17;;;;;;;22.67;100.00;98419.56;10257447;29;20214;-82
2021/06/20 03:46:43;;;;;;;17.20;10.40;;;;;;;22.80;100.00;98420.72;10255616;29;20187;-82
2021/06/20 03:52:02;;;;;;;14.60;11.50;;;;;;;22.85;100.00;98424.84;10257540;29;20174;-83
2021/06/20 03:57:22;;;;;;;14.80;10.70;;;;;;;22.95;100.00;98426.19;10233077;29;20576;-83
2021/06/20 04:02:41;;;;;;;16.57;10.77;;;;;;;22.87;100.00;98436.31;10214966;29;20645;-83
2021/06/20 04:08:00;;;;;;;11.90;10.27;;;;;;;22.83;100.00;98447.75;10217206;29;20263;-84
2021/06/20 04:13:19;;;;;;;13.80;11.17;;;;;;;22.84;100.00;98440.13;10216098;29;20183;-83
2021/06/20 04:18:39;;;;;;;14.70;10.70;;;;;;;22.94;100.00;98452.72;10214409;29;20626;-83
2021/06/20 04:23:58;;;;;;;17.90;11.13;;;;;;;22.93;100.00;98453.97;10215585;29;20231;-81
2021/06/20 04:29:17;;;;;;;15.50;11.20;;;;;;;22.94;100.00;98452.72;10214898;29;20231;-82
2021/06/20 04:34:36;;;;;;;18.77;10.00;;;;;;;23.03;100.00;98461.75;10214736;29;20577;-82
2021/06/20 04:39:55;;;;;;;25.63;12.07;;;;;;;22.93;100.00;98462.41;10214961;29;20278;-82
2021/06/20 04:45:14;;;;;;;17.27;11.10;;;;;;;22.92;100.00;98461.63;10213706;29;20183;-82
2021/06/20 04:50:33;;;;;;;20.60;9.53;;;;;;;23.05;100.00;98458.44;10214697;29;20171;-82
2021/06/20 04:55:52;;;;;;;12.60;10.67;;;;;;;23.20;100.00;98462.66;10229115;29;20183;-83
2021/06/20 05:01:11;;;;;;;15.63;10.43;;;;;;;23.41;100.00;98478.91;10253523;29;20206;-82
2021/06/20 05:06:30;;;;;;;15.20;10.93;;;;;;;23.34;100.00;98479.34;10254690;29;20567;-82
2021/06/20 05:11:49;;;;;;;16.03;11.57;;;;;;;23.29;100.00;98482.13;10254836;29;20183;-82
2021/06/20 05:17:09;;;;;;;12.73;9.80;;;;;;;23.42;100.00;98471.22;10253050;29;20179;-82
2021/06/20 05:22:28;;;;;;;15.90;9.40;;;;;;;23.79;100.00;98488.84;10253723;29;20218;-82
2021/06/20 05:27:47;;;;;;;16.67;10.70;;;;;;;24.15;100.00;98497.22;10224437;29;20638;-82
2021/06/20 05:33:06;;;;;;;15.23;9.60;;;;;;;24.32;100.00;98493.22;10213204;29;20274;-82
2021/06/20 05:38:25;;;;;;;15.60;8.40;;;;;;;24.38;100.00;98493.25;10213060;29;20175;-83
2021/06/20 05:43:44;;;;;;;13.63;9.00;;;;;;;24.48;100.00;98472.06;10213455;29;20219;-82
2021/06/20 05:49:03;;;;;;;15.43;8.53;;;;;;;24.72;100.00;98484.44;10212575;29;20183;-82
2021/06/20 05:54:22;;;;;;;9.43;6.80;;;;;;;24.84;100.00;98499.28;10215429;29;20179;-82
2021/06/20 05:59:41;;;;;;;8.73;5.50;;;;;;;25.04;100.00;98500.59;10253014;29;20214;-83
2021/06/20 06:05:00;;;;;;;11.10;5.40;;;;;;;25.02;97.01;98522.88;10250237;29;20183;-83
2021/06/20 06:10:19;;;;;;;6.37;4.13;;;;;;;25.28;90.53;98545.19;10230077;29;20238;-83
2021/06/20 06:15:38;;;;;;;3.03;2.73;;;;;;;25.13;84.73;98528.53;10240214;29;20267;-83
2021/06/20 06:20:56;;;;;;;7.67;3.43;;;;;;;25.13;82.77;98533.41;10211878;29;20246;-83
2021/06/20 06:26:16;;;;;;;8.37;3.07;;;;;;;24.92;67.53;98528.47;10212981;29;20183;-83
2021/06/20 06:31:36;;;;;;;3.60;2.80;;;;;;;24.81;67.36;98534.06;10210188;29;20283;-82
2021/06/20 06:36:55;;;;;;;5.93;2.70;;;;;;;24.82;66.21;98533.56;10211732;29;20179;-83
2021/06/20 06:42:14;;;;;;;7.30;3.00;;;;;;;25.14;64.66;98549.00;10227580;29;20214;-82
2021/06/20 06:47:34;;;;;;;4.40;1.97;;;;;;;25.50;64.44;98562.88;10250936;29;20269;-82
2021/06/20 06:52:54;;;;;;;5.67;2.53;;;;;;;25.88;64.14;98554.44;10251099;29;20270;-83
2021/06/20 06:58:14;;;;;;;7.53;2.80;;;;;;;26.14;64.66;98554.88;10243727;29;20184;-82
2021/06/20 07:03:33;;;;;;;5.23;4.27;;;;;;;26.85;62.24;98548.97;10209545;29;20211;-85
2021/06/20 07:08:52;;;;;;;3.07;2.20;;;;;;;26.70;59.70;98576.78;10220740;29;20180;-85
2021/06/20 07:14:14;;;;;;;2.67;2.23;;;;;;;25.93;58.48;98572.59;10220932;29;20187;-84
2021/06/20 07:19:34;;;;;;;3.20;2.03;;;;;;;25.64;57.91;98581.56;10221836;29;20293;-84
2021/06/20 07:24:53;;;;;;;5.40;2.27;;;;;;;25.56;58.87;98576.97;10221861;29;20634;-85
2021/06/20 07:30:17;;;;;;;2.20;2.00;;;;;;;25.84;59.53;98581.34;10243031;29;20234;-86
2021/06/20 07:35:36;;;;;;;3.53;2.50;;;;;;;26.14;60.09;98582.31;10259632;29;20187;-85
2021/06/20 07:40:55;;;;;;;6.67;4.40;;;;;;;26.56;57.03;98582.72;10259123;29;20202;-87
2021/06/20 07:46:14;;;;;;;3.53;3.10;;;;;;;26.84;56.85;98595.44;10258086;29;20646;-84
2021/06/20 07:51:33;;;;;;;3.30;2.50;;;;;;;26.52;57.04;98595.56;10242489;29;20265;-85
2021/06/20 07:56:52;;;;;;;3.00;2.50;;;;;;;26.20;56.75;98603.59;10257589;29;20187;-85
2021/06/20 08:02:13;;;;;;;6.97;2.63;;;;;;;26.66;58.42;98607.31;10255135;29;20214;-87
2021/06/20 08:07:32;;;;;;;3.97;2.37;;;;;;;26.55;55.17;98622.75;10258001;29;20179;-86
2021/06/20 08:12:52;;;;;;;4.90;2.40;;;;;;;27.11;54.88;98625.63;10257748;29;20171;-87
2021/06/20 08:18:11;;;;;;;5.73;2.27;;;;;;;27.21;54.86;98614.78;10255257;28;20637;-84
2021/06/20 08:23:30;;;;;;;3.10;1.90;;;;;;;27.27;54.60;98624.78;10220850;29;20254;-85
2021/06/20 08:28:48;;;;;;;2.70;2.10;;;;;;;28.03;52.06;98614.97;10215624;29;20682;-83
2021/06/20 08:34:08;;;;;;;2.27;1.70;;;;;;;27.78;52.91;98615.47;10214793;29;20271;-82
2021/06/20 08:39:28;;;;;;;4.70;1.87;;;;;;;28.34;50.76;98617.25;10215818;29;20203;-82
2021/06/20 08:44:47;;;;;;;8.50;2.30;;;;;;;28.63;51.57;98610.78;10215151;29;20183;-84
2021/06/20 08:50:07;;;;;;;3.07;2.20;;;;;;;28.51;51.43;98612.94;10225124;29;20225;-84
2021/06/20 08:55:26;;;;;;;2.03;1.90;;;;;;;29.72;50.08;98589.44;10254242;29;20186;-84
2021/06/20 09:00:46;;;;;;;10.07;2.60;;;;;;;30.22;47.31;98595.81;10253062;29;20206;-84
2021/06/20 09:06:18;;;;;;;6.33;2.53;;;;;;;30.47;47.34;98594.31;10255671;29;20206;-84
2021/06/20 09:11:39;;;;;;;3.47;3.17;;;;;;;30.22;48.26;98575.94;10254257;29;20178;-84
2021/06/20 09:16:58;;;;;;;3.40;3.10;;;;;;;31.11;46.15;98584.22;10254692;29;20183;-84
2021/06/20 09:22:17;;;;;;;9.00;2.53;;;;;;;31.08;46.32;98586.09;10226917;29;20621;-86
2021/06/20 09:27:36;;;;;;;3.53;3.20;;;;;;;31.67;46.13;98582.44;10213418;29;20179;-84
2021/06/20 09:32:57;;;;;;;4.27;3.20;;;;;;;31.41;46.79;98584.59;10213306;29;20223;-84
2021/06/20 09:38:19;;;;;;;5.70;2.40;;;;;;;31.49;47.40;98568.38;10243080;29;20198;-83
2021/06/20 09:43:50;;;;;;;3.40;3.10;;;;;;;30.71;47.79;98565.69;10217757;29;20223;-83
2021/06/20 09:49:09;;;;;;;3.80;3.23;;;;;;;31.12;48.80;98552.44;10213448;29;20176;-84
2021/06/20 09:54:32;;;;;;;3.40;3.07;;;;;;;32.46;44.25;98552.94;10234996;29;20567;-84
2021/06/20 10:00:00;;;;;;;4.73;3.40;;;;;;;31.24;46.65;98556.53;10222640;29;20207;-83
2021/06/20 10:05:19;;;;;;;6.20;3.13;;;;;;;30.36;48.77;98549.09;10231763;29;20198;-83
2021/06/20 10:10:38;;;;;;;4.87;3.63;;;;;;;29.82;49.86;98545.19;10243477;29;20195;-85
2021/06/20 10:16:24;;;;;;;11.30;3.53;;;;;;;28.72;53.93;98537.56;10253283;29;20182;-83
2021/06/20 10:21:46;;;;;;;3.33;3.03;;;;;;;28.79;54.19;98530.56;10241043;29;20222;-83
2021/06/20 10:27:06;;;;;;;4.10;3.70;;;;;;;28.87;54.00;98529.41;10214550;29;20187;-83
2021/06/20 10:32:35;;;;;;;4.00;3.00;;;;;;;29.19;54.99;98536.66;10211980;29;20612;-84
2021/06/20 10:37:55;;;;;;;3.80;3.13;;;;;;;29.05;55.13;98545.63;10214446;29;20191;-83
2021/06/20 10:43:20;;;;;;;5.70;2.63;;;;;;;29.19;54.15;98553.66;10222045;29;20330;-82
2021/06/20 10:48:39;;;;;;;3.03;2.83;;;;;;;29.31;51.63;98551.44;10227264;29;20196;-83
2021/06/20 10:53:58;;;;;;;3.20;2.30;;;;;;;29.73;51.45;98539.16;10222683;29;20214;-82
2021/06/20 10:59:22;;;;;;;3.70;2.50;;;;;;;29.93;48.51;98550.69;10222012;29;20176;-82
2021/06/20 11:04:41;;;;;;;3.50;2.40;;;;;;;29.88;48.19;98543.00;10219498;29;20187;-82
2021/06/20 11:10:00;;;;;;;2.70;2.50;;;;;;;29.73;50.30;98547.66;10234847;29;20280;-86
2021/06/20 11:15:27;;;;;;;4.23;2.87;;;;;;;29.51;49.22;98548.03;10254642;29;20226;-86
2021/06/20 11:20:49;;;;;;;3.60;2.53;;;;;;;30.16;46.98;98535.56;10255813;29;20297;-85
2021/06/20 11:26:08;;;;;;;5.13;2.40;;;;;;;29.68;49.53;98534.34;10247045;29;20278;-86
2021/06/20 11:31:28;;;;;;;3.97;2.17;;;;;;;28.66;50.48;98524.75;10217433;29;20609;-85
2021/06/20 11:36:47;;;;;;;3.10;2.80;;;;;;;28.44;51.06;98525.81;10220188;29;20179;-86
2021/06/20 11:42:06;;;;;;;2.20;1.97;;;;;;;28.20;50.76;98524.28;10220286;29;20234;-86
2021/06/20 11:47:30;;;;;;;2.50;2.10;;;;;;;27.96;51.00;98522.22;10221261;29;20192;-85
2021/06/20 11:53:02;;;;;;;1.93;1.83;;;;;;;28.13;51.29;98531.31;10236169;29;20178;-85
2021/06/20 11:58:22;;;;;;;11.00;3.50;;;;;;;28.34;51.15;98521.84;10258246;29;20187;-87
2021/06/20 12:03:41;;;;;;;5.50;2.70;;;;;;;28.04;51.57;98514.69;10234248;29;20238;-85
2021/06/20 12:09:00;;;;;;;3.83;2.53;;;;;;;27.55;52.23;98501.78;10224185;29;20219;-86
2021/06/20 12:14:23;;;;;;;3.33;1.90;;;;;;;27.27;53.52;98483.53;10233299;29;20199;-85
2021/06/20 12:19:41;;;;;;;4.73;2.00;;;;;;;27.29;54.35;98468.88;10237569;29;20210;-86
2021/06/20 12:25:01;;;;;;;6.40;2.60;;;;;;;27.58;53.59;98457.56;10233694;29;20176;-86
2021/06/20 12:30:24;;;;;;;5.17;2.20;;;;;;;28.42;50.87;98456.91;10250045;29;20696;-87
2021/06/20 12:35:51;;;;;;;2.90;2.37;;;;;;;28.50;51.13;98455.78;10255346;29;20183;-87
2021/06/20 12:41:20;;;;;;;2.30;2.00;;;;;;;28.95;49.76;98453.84;10241054;29;20695;-87
2021/06/20 12:46:39;;;;;;;2.37;1.90;;;;;;;29.47;47.19;98460.47;10245544;29;20190;-86
2021/06/20 12:52:04;;;;;;;1.90;1.80;;;;;;;29.20;46.44;98458.84;10216293;29;20195;-86
2021/06/20 12:57:31;;;;;;;7.43;2.10;;;;;;;29.15;45.69;98458.94;10251210;29;20186;-86
2021/06/20 13:02:55;;;;;;;1.80;1.40;;;;;;;28.76;45.82;98446.66;10251534;28;20211;-86
2021/06/20 13:08:16;;;;;;;2.70;2.10;;;;;;;29.18;46.61;98443.69;10224647;29;20174;-85
2021/06/20 13:13:35;;;;;;;2.53;1.87;;;;;;;29.49;45.77;98431.56;10254028;29;20195;-86
2021/06/20 13:18:53;;;;;;;2.40;2.20;;;;;;;29.56;45.24;98419.63;10234684;29;20223;-86
2021/06/20 13:24:17;;;;;;;2.37;1.80;;;;;;;29.91;44.46;98413.50;10221816;29;20199;-85
2021/06/20 13:29:36;;;;;;;6.90;2.33;;;;;;;29.88;44.48;98411.78;10226302;29;20227;-85
2021/06/20 13:34:55;;;;;;;5.43;1.67;;;;;;;30.06;42.04;98389.75;10227263;29;20183;-85
2021/06/20 13:40:17;;;;;;;2.63;1.80;;;;;;;30.79;42.76;98377.03;10222503;29;20215;-85
2021/06/20 13:45:37;;;;;;;4.13;2.20;;;;;;;31.39;39.42;98365.47;10232200;29;20553;-86
2021/06/20 13:50:56;;;;;;;5.00;2.00;;;;;;;31.52;38.66;98356.81;10226667;29;20183;-85
2021/06/20 13:56:15;;;;;;;3.17;1.50;;;;;;;31.51;37.96;98341.06;10226421;29;20203;-86
2021/06/20 14:01:34;;;;;;;2.90;1.73;;;;;;;32.01;36.97;98341.97;10236537;29;20316;-86
2021/06/20 14:06:53;;;;;;;1.70;1.50;;;;;;;33.19;34.79;98328.66;10230312;29;20187;-84
2021/06/20 14:12:14;;;;;;;8.03;2.60;;;;;;;32.34;38.15;98329.59;10222517;29;20182;-85
2021/06/20 14:17:33;;;;;;;4.90;1.80;;;;;;;32.66;37.02;98307.91;10229130;28;20300;-84
2021/06/20 14:22:52;;;;;;;2.53;1.73;;;;;;;33.45;35.13;98309.03;10234993;29;20217;-85
2021/06/20 14:28:12;;;;;;;3.83;1.73;;;;;;;33.23;36.09;98309.09;10241519;29;20638;-85
2021/06/20 14:33:31;;;;;;;6.57;2.13;;;;;;;33.45;35.63;98300.47;10240094;29;20187;-85
2021/06/20 14:38:50;;;;;;;4.53;1.90;;;;;;;33.57;34.94;98293.06;10234987;29;20222;-85
2021/06/20 14:44:09;;;;;;;4.30;1.70;;;;;;;33.02;36.50;98290.63;10236903;29;20217;-83
2021/06/20 14:49:28;;;;;;;1.80;1.63;;;;;;;32.53;37.62;98290.19;10233131;29;20199;-84
2021/06/20 14:54:56;;;;;;;3.20;2.57;;;;;;;31.90;41.71;98291.09;10233824;29;20182;-84
2021/06/20 15:00:17;;;;;;;4.00;2.27;;;;;;;31.45;42.95;98277.91;10234328;29;20222;-86
2021/06/20 15:05:35;;;;;;;2.40;2.10;;;;;;;31.34;44.33;98270.47;10231733;29;20183;-84
2021/06/20 15:10:54;;;;;;;11.63;3.00;;;;;;;31.34;45.60;98261.94;10228794;29;20187;-85
2021/06/20 15:16:13;;;;;;;3.73;2.73;;;;;;;31.67;45.67;98253.22;10238291;29;20186;-85
2021/06/20 15:21:35;;;;;;;5.73;3.40;;;;;;;31.51;45.38;98247.25;10228209;29;20681;-85
2021/06/20 15:26:54;;;;;;;9.30;3.17;;;;;;;31.29;46.80;98254.34;10217934;29;20179;-82
2021/06/20 15:32:31;;;;;;;3.50;2.77;;;;;;;31.31;48.84;98250.94;10216761;29;20231;-82
2021/06/20 15:37:57;;;;;;;2.27;2.17;;;;;;;31.35;48.23;98257.78;10256834;29;20191;-84
2021/06/20 15:43:16;;;;;;;5.93;2.63;;;;;;;30.84;49.18;98251.13;10257777;29;20210;-83
2021/06/20 15:48:35;;;;;;;5.23;3.07;;;;;;;30.49;49.68;98253.84;10226502;29;20192;-83
2021/06/20 15:53:55;;;;;;;4.73;3.00;;;;;;;30.35;50.09;98246.69;10217557;29;20180;-83
2021/06/20 15:59:14;;;;;;;5.53;2.53;;;;;;;30.14;50.43;98256.50;10219820;29;20254;-82
2021/06/20 16:04:33;;;;;;;2.83;2.57;;;;;;;30.15;51.23;98252.34;10221208;29;20179;-82
2021/06/20 16:09:52;;;;;;;3.10;2.90;;;;;;;30.15;52.33;98247.41;10217538;29;20232;-84
2021/06/20 16:15:12;;;;;;;4.70;3.27;;;;;;;30.14;51.40;98239.47;10218393;29;20236;-84
2021/06/20 16:20:32;;;;;;;4.13;3.20;;;;;;;29.94;54.08;98228.09;10215734;29;20218;-84
2021/06/20 16:25:51;;;;;;;5.10;3.17;;;;;;;29.83;55.71;98217.72;10217038;29;20207;-84
2021/06/20 16:31:09;;;;;;;7.10;3.40;;;;;;;29.76;56.20;98220.47;10215011;29;20674;-85
2021/06/20 16:36:29;;;;;;;4.73;3.30;;;;;;;29.62;56.80;98207.63;10216252;29;20176;-84
2021/06/20 16:41:47;;;;;;;3.50;3.20;;;;;;;29.64;58.22;98197.28;10214446;29;20211;-84
2021/06/20 16:47:07;;;;;;;10.23;3.13;;;;;;;29.59;59.22;98200.22;10237918;29;20195;-85
2021/06/20 16:52:26;;;;;;;5.23;3.30;;;;;;;29.49;57.62;98199.91;10255390;29;20190;-84
2021/06/20 16:57:45;;;;;;;3.50;3.20;;;;;;;29.14;58.76;98191.13;10255142;29;20179;-87
2021/06/20 17:03:04;;;;;;;10.63;3.73;;;;;;;29.23;59.01;98190.66;10252549;29;20611;-87
2021/06/20 17:08:23;;;;;;;9.83;4.57;;;;;;;29.11;59.73;98197.84;10255121;29;20222;-86
2021/06/20 17:13:42;;;;;;;3.87;3.40;;;;;;;28.97;60.65;98185.00;10254845;29;20175;-85
2021/06/20 17:19:01;;;;;;;4.27;3.10;;;;;;;28.78;62.59;98186.41;10216597;29;20211;-85
2021/06/20 17:24:21;;;;;;;4.70;4.10;;;;;;;28.56;63.05;98187.56;10226371;29;20195;-85
2021/06/20 17:29:40;;;;;;;11.33;4.43;;;;;;;28.27;65.07;98192.72;10248619;29;20314;-85
2021/06/20 17:34:59;;;;;;;5.80;4.07;;;;;;;28.09;66.22;98187.84;10253656;29;20261;-85
2021/06/20 17:40:19;;;;;;;10.13;4.80;;;;;;;28.03;66.00;98195.66;10222882;29;20246;-85
2021/06/20 17:45:39;;;;;;;5.03;3.77;;;;;;;27.88;67.00;98178.38;10212904;29;20187;-86
2021/06/20 17:50:58;;;;;;;10.60;4.70;;;;;;;27.83;67.23;98170.75;10218193;29;20243;-86
2021/06/20 17:56:18;;;;;;;8.07;5.23;;;;;;;27.53;67.94;98187.88;10214665;29;20191;-84
2021/06/20 18:01:39;;;;;;;4.63;4.10;;;;;;;27.41;68.56;98165.94;10212417;29;20207;-84
2021/06/20 18:06:58;;;;;;;5.70;3.70;;;;;;;27.13;70.31;98162.75;10212614;29;20183;-84
2021/06/20 18:12:17;;;;;;;6.53;3.90;;;;;;;26.95;70.68;98166.25;10213705;29;20175;-85
2021/06/20 18:17:37;;;;;;;5.70;4.00;;;;;;;26.79;71.50;98155.91;10242217;29;20293;-85
2021/06/20 18:22:57;;;;;;;4.47;3.40;;;;;;;26.65;71.88;98162.72;10251573;29;20210;-86
2021/06/20 18:28:16;;;;;;;3.73;3.43;;;;;;;26.46;73.26;98168.84;10251691;29;20222;-85
2021/06/20 18:33:35;;;;;;;9.40;4.83;;;;;;;26.25;77.02;98160.03;10250627;29;20170;-84
2021/06/20 18:38:55;;;;;;;4.07;3.60;;;;;;;25.91;80.25;98138.31;10251479;29;20175;-84
2021/06/20 18:44:15;;;;;;;8.20;3.70;;;;;;;25.61;82.91;98119.81;10222942;29;20215;-84
2021/06/20 18:49:38;;;;;;;7.77;3.80;;;;;;;25.05;92.14;98105.25;10212082;29;20195;-84
2021/06/20 18:54:57;;;;;;;13.87;3.53;;;;;;;24.75;95.46;98109.25;10212565;29;20749;-84
2021/06/20 19:00:18;;;;;;;7.50;4.07;;;;;;;24.69;100.00;98093.66;10212740;29;20210;-84
2021/06/20 19:05:37;;;;;;;8.83;3.93;;;;;;;24.53;100.00;98080.44;10219415;29;20188;-84
2021/06/20 19:10:57;;;;;;;5.97;4.37;;;;;;;24.34;100.00;98063.34;10219530;29;20187;-84
2021/06/20 19:16:16;;;;;;;6.63;4.17;;;;;;;24.07;100.00;98054.94;10256325;29;20206;-84
2021/06/20 19:21:35;;;;;;;6.70;4.20;;;;;;;23.87;100.00;98046.84;10258788;29;20234;-84
2021/06/20 19:26:54;;;;;;;6.43;4.47;;;;;;;23.74;100.00;98054.25;10258829;29;20179;-84
2021/06/20 19:32:14;;;;;;;7.07;4.80;;;;;;;23.65;100.00;98052.44;10255692;29;20223;-84
2021/06/20 19:37:33;;;;;;;5.70;4.97;;;;;;;23.59;100.00;98048.84;10257360;29;20183;-84
2021/06/20 19:42:52;;;;;;;7.83;3.93;;;;;;;23.57;100.00;98051.44;10240837;29;20215;-85
2021/06/20 19:48:13;;;;;;;7.20;4.10;;;;;;;23.42;100.00;98048.06;10216198;29;20688;-85
2021/06/20 19:53:32;;;;;;;13.83;4.57;;;;;;;23.29;100.00;98032.25;10217072;29;20180;-85
2021/06/20 19:58:51;;;;;;;8.67;4.63;;;;;;;23.18;100.00;98021.78;10218037;29;20172;-85
2021/06/20 20:04:10;;;;;;;4.10;3.50;;;;;;;23.20;100.00;98026.88;10214803;29;20199;-84
2021/06/20 20:09:29;;;;;;;4.83;3.60;;;;;;;22.93;100.00;98002.34;10217613;29;20179;-84
2021/06/20 20:14:48;;;;;;;9.50;3.67;;;;;;;22.95;100.00;98005.41;10250263;28;20569;-85
2021/06/20 20:20:11;;;;;;;11.33;3.90;;;;;;;22.92;100.00;98001.56;10255673;29;20199;-84
2021/06/20 20:25:31;;;;;;;4.10;3.03;;;;;;;22.81;100.00;97981.16;10256580;29;20175;-84
2021/06/20 20:30:49;;;;;;;3.47;3.20;;;;;;;22.79;100.00;97952.84;10254517;29;20222;-84
2021/06/20 20:36:09;;;;;;;5.43;3.67;;;;;;;22.65;100.00;97931.41;10256090;29;20536;-84
2021/06/20 20:41:28;;;;;;;3.77;3.47;;;;;;;22.82;100.00;97951.84;10248182;29;20211;-84
2021/06/20 20:46:47;;;;;;;5.03;3.10;;;;;;;22.49;100.00;98015.50;10214848;29;20259;-84
2021/06/20 20:52:06;;;;;;;4.53;3.47;;;;;;;21.60;100.00;98167.41;10225641;29;20180;-83
2021/06/20 20:57:26;;;;;;;6.57;3.80;;;;;;;20.94;100.00;98249.75;10217550;29;20175;-81
2021/06/20 21:02:46;;;;;;;6.17;5.47;;;;;;;20.49;100.00;98202.84;10212516;29;20573;-77
2021/06/20 21:08:06;;;;;;;11.70;5.10;;;;;;;20.07;100.00;98210.81;10215311;29;20179;-77
2021/06/20 21:13:24;;;;;;;11.63;4.40;;;;;;;19.72;100.00;98197.22;10215265;29;20175;-80
2021/06/20 21:18:44;;;;;;;10.10;4.40;;;;;;;19.60;100.00;98232.53;10213522;29;20207;-79
2021/06/20 21:24:03;;;;;;;11.63;5.43;;;;;;;19.56;100.00;98236.75;10242515;28;20210;-80
2021/06/20 21:29:22;;;;;;;13.13;5.50;;;;;;;19.61;100.00;98211.00;10253986;29;20222;-81
2021/06/20 21:34:41;;;;;;;12.63;4.70;;;;;;;19.72;100.00;98192.44;10252885;29;20265;-81
2021/06/20 21:40:01;;;;;;;20.63;5.93;;;;;;;19.74;100.00;98183.56;10252749;29;20672;-81
2021/06/20 21:45:21;;;;;;;11.07;5.00;;;;;;;19.96;100.00;98181.94;10252437;29;20261;-81
2021/06/20 21:50:40;;;;;;;19.47;4.57;;;;;;;19.90;100.00;98183.06;10250636;29;20187;-82
2021/06/20 21:55:59;;;;;;;8.20;5.73;;;;;;;19.85;100.00;98206.09;10212891;29;20625;-82
2021/06/20 22:01:18;;;;;;;6.20;3.90;;;;;;;19.74;100.00;98203.09;10211280;29;20575;-82
2021/06/20 22:06:37;;;;;;;10.37;4.57;;;;;;;19.75;100.00;98199.81;10213685;29;20305;-82
2021/06/20 22:11:56;;;;;;;10.10;4.20;;;;;;;19.73;100.00;98213.50;10212360;29;20171;-82
2021/06/20 22:17:15;;;;;;;14.23;4.93;;;;;;;19.76;100.00;98206.19;10212122;29;20191;-81
2021/06/20 22:22:34;;;;;;;10.93;4.40;;;;;;;19.77;100.00;98210.53;10232213;29;20218;-81
2021/06/20 22:27:54;;;;;;;11.30;4.00;;;;;;;19.86;100.00;98193.69;10252029;29;20525;-82
2021/06/20 22:33:17;;;;;;;6.20;3.40;;;;;;;19.91;100.00;98195.78;10250667;29;20621;-82
2021/06/20 22:38:36;;;;;;;4.20;2.80;;;;;;;19.86;100.00;98185.31;10259554;28;20182;-82
2021/06/20 22:43:55;;;;;;;6.47;3.00;;;;;;;19.76;100.00;98144.78;10258636;29;20301;-82
2021/06/20 22:49:14;;;;;;;3.57;2.33;;;;;;;19.88;100.00;98121.38;10257993;29;20187;-82
2021/06/20 22:54:33;;;;;;;5.57;3.47;;;;;;;19.64;100.00;98074.06;10224954;29;20191;-82
2021/06/20 22:59:53;;;;;;;9.10;2.60;;;;;;;19.56;100.00;98055.41;10220055;29;20184;-82
2021/06/20 23:05:12;;;;;;;2.60;2.07;;;;;;;19.67;100.00;98063.97;10220015;29;20179;-83
2021/06/20 23:10:31;;;;;;;3.60;3.10;;;;;;;19.70;100.00;98029.53;10254377;29;20701;-83
2021/06/20 23:15:50;;;;;;;13.50;3.37;;;;;;;19.69;100.00;97995.25;10257857;29;20199;-83
2021/06/20 23:21:09;;;;;;;10.83;2.77;;;;;;;19.65;100.00;98000.28;10250772;29;20210;-83
2021/06/20 23:26:28;;;;;;;7.90;4.10;;;;;;;19.56;100.00;97985.66;10219007;29;20183;-84
2021/06/20 23:31:47;;;;;;;9.03;3.70;;;;;;;19.57;100.00;97974.03;10217080;29;20227;-83
2021/06/20 23:37:08;;;;;;;9.57;3.67;;;;;;;19.56;100.00;97989.25;10218576;29;20179;-83
2021/06/20 23:42:27;;;;;;;5.83;3.40;;;;;;;19.68;100.00;98043.19;10217284;29;20203;-83
2021/06/20 23:47:48;;;;;;;7.00;3.90;;;;;;;19.72;100.00;98077.22;10216395;29;20175;-83
2021/06/20 23:53:07;;;;;;;5.77;3.30;;;;;;;19.62;100.00;98137.22;10239531;29;20793;-83
2021/06/20 23:58:26;;;;;;;7.23;4.30;;;;;;;19.27;100.00;98162.19;10256752;29;20186;-83
